Time;durP1;ratioP1;P1;durP2;ratioP2;P2;SDS_P1;SDS_P2;PMS_P1;PMS_P2;Temp;Humidity;BMP_temperature;BMP_pressure;BME280_temperature;BME280_humidity;BME280_pressure;Samples;Min_cycle;Max_cycle;Signal;HPM_P1;HPM_P2
2022/05/19 00:01:58;;;;;;;5.75;4.07;;;19.30;99.90;;;;;;4808184;24;20693;-82
2022/05/19 00:04:24;;;;;;;4.47;3.72;;;19.20;99.90;;;;;;4792907;29;20543;-81
2022/05/19 00:06:50;;;;;;;4.18;3.67;;;19.20;99.90;;;;;;4791864;29;20689;-82
2022/05/19 00:09:16;;;;;;;5.68;3.47;;;19.10;99.90;;;;;;4789409;30;20286;-82
2022/05/19 00:11:42;;;;;;;6.03;3.58;;;19.10;99.90;;;;;;4791197;29;20287;-82
2022/05/19 00:14:09;;;;;;;6.22;4.05;;;19.00;99.90;;;;;;4797292;29;20187;-81
2022/05/19 00:16:35;;;;;;;7.10;3.92;;;19.00;99.90;;;;;;4792084;29;20200;-82
2022/05/19 00:19:01;;;;;;;7.63;4.00;;;19.00;99.90;;;;;;4788432;29;20533;-82
2022/05/19 00:21:27;;;;;;;5.40;3.80;;;18.90;99.90;;;;;;4797183;29;20191;-81
2022/05/19 00:23:53;;;;;;;6.32;4.10;;;18.90;99.90;;;;;;4787479;29;20287;-82
2022/05/19 00:26:19;;;;;;;7.00;4.20;;;18.90;99.90;;;;;;4796242;29;20515;-81
2022/05/19 00:28:45;;;;;;;6.07;3.78;;;18.90;99.90;;;;;;4797142;29;20205;-82
2022/05/19 00:31:11;;;;;;;4.60;4.10;;;18.80;99.90;;;;;;4806599;29;20198;-82
2022/05/19 00:33:37;;;;;;;4.68;3.67;;;18.90;99.90;;;;;;4798513;29;20277;-81
2022/05/19 00:36:16;;;;;;;5.57;3.60;;;18.80;99.90;;;;;;4797829;29;20199;-81
2022/05/19 00:38:41;;;;;;;5.30;4.07;;;18.80;99.90;;;;;;4790953;29;20274;-81
2022/05/19 00:41:08;;;;;;;6.13;4.00;;;18.80;99.90;;;;;;4798356;29;20269;-81
2022/05/19 00:43:41;;;;;;;4.82;3.92;;;18.80;99.90;;;;;;4786971;29;20233;-82
2022/05/19 00:46:12;;;;;;;5.57;4.22;;;18.80;99.90;;;;;;4788819;29;20504;-81
2022/05/19 00:48:47;;;;;;;5.03;3.95;;;18.70;99.90;;;;;;4795083;29;20191;-81
2022/05/19 00:51:15;;;;;;;5.57;4.18;;;18.70;99.90;;;;;;4805363;29;20497;-81
2022/05/19 00:53:54;;;;;;;6.10;4.15;;;18.70;99.90;;;;;;4788566;29;20191;-82
2022/05/19 00:56:25;;;;;;;6.72;4.35;;;18.60;99.90;;;;;;4788844;30;20222;-82
2022/05/19 00:59:00;;;;;;;5.30;4.40;;;18.60;99.90;;;;;;4788178;29;20281;-81
2022/05/19 01:01:25;;;;;;;4.78;4.22;;;18.60;99.90;;;;;;4799927;29;20281;-81
2022/05/19 01:03:59;;;;;;;5.93;4.45;;;18.60;99.90;;;;;;4798629;29;20713;-81
2022/05/19 01:06:27;;;;;;;4.78;4.00;;;18.60;99.90;;;;;;4805762;29;20186;-81
2022/05/19 01:09:01;;;;;;;6.85;4.18;;;18.60;99.90;;;;;;4796964;29;20627;-81
2022/05/19 01:11:27;;;;;;;5.55;4.28;;;18.50;99.90;;;;;;4801505;29;20191;-81
2022/05/19 01:13:53;;;;;;;3.85;3.55;;;18.50;99.90;;;;;;4791440;29;20191;-82
2022/05/19 01:16:19;;;;;;;7.65;4.45;;;18.40;99.90;;;;;;4801797;29;20670;-81
2022/05/19 01:18:45;;;;;;;5.88;4.32;;;18.40;99.90;;;;;;4796384;29;20271;-81
2022/05/19 01:21:14;;;;;;;7.07;4.55;;;18.40;99.90;;;;;;4805694;29;20190;-82
2022/05/19 01:23:52;;;;;;;5.28;3.97;;;18.40;99.90;;;;;;4805959;29;20225;-81
2022/05/19 01:26:39;;;;;;;6.88;3.83;;;18.40;99.90;;;;;;4787833;29;20175;-82
2022/05/19 01:29:04;;;;;;;6.28;3.80;;;18.30;99.90;;;;;;4788940;29;20176;-82
2022/05/19 01:31:55;;;;;;;4.50;3.90;;;18.30;99.90;;;;;;4789071;29;20190;-82
2022/05/19 01:34:24;;;;;;;5.45;4.13;;;18.30;99.90;;;;;;4787863;30;20179;-82
2022/05/19 01:36:50;;;;;;;5.20;4.00;;;18.30;99.90;;;;;;4789115;29;20184;-81
2022/05/19 01:39:23;;;;;;;5.28;3.90;;;18.30;99.90;;;;;;4788762;29;20231;-81
2022/05/19 01:42:19;;;;;;;5.50;4.22;;;18.20;99.90;;;;;;4788949;30;20179;-82
2022/05/19 01:45:08;;;;;;;4.80;4.10;;;18.30;99.90;;;;;;4788956;30;20214;-81
2022/05/19 01:47:57;;;;;;;5.90;4.57;;;18.20;99.90;;;;;;4789283;30;20267;-81
2022/05/19 01:50:48;;;;;;;7.03;4.53;;;18.20;99.90;;;;;;4788815;30;20175;-82
2022/05/19 01:53:28;;;;;;;5.15;3.80;;;18.20;99.90;;;;;;4788937;30;20172;-82
2022/05/19 01:56:14;;;;;;;7.00;3.92;;;18.20;99.90;;;;;;4788577;29;20262;-82
2022/05/19 01:58:59;;;;;;;5.97;4.35;;;18.10;99.90;;;;;;4788190;29;20252;-82
2022/05/19 02:01:27;;;;;;;6.85;4.10;;;18.10;99.90;;;;;;4788892;30;20227;-82
2022/05/19 02:04:16;;;;;;;9.10;4.45;;;18.10;99.90;;;;;;4788321;29;20220;-82
2022/05/19 02:06:55;;;;;;;6.25;4.05;;;18.00;99.90;;;;;;4789026;29;20186;-82
2022/05/19 02:09:53;;;;;;;5.57;4.10;;;18.10;99.90;;;;;;4793857;29;20288;-82
2022/05/19 02:12:19;;;;;;;6.82;4.28;;;18.10;99.90;;;;;;4809951;29;20203;-81
2022/05/19 02:14:57;;;;;;;4.88;4.05;;;18.00;99.90;;;;;;4809919;29;20183;-82
2022/05/19 02:17:25;;;;;;;7.43;4.43;;;17.90;99.90;;;;;;4808771;29;20641;-82
2022/05/19 02:19:56;;;;;;;6.38;4.53;;;17.90;99.90;;;;;;4810404;29;20265;-82
2022/05/19 02:22:28;;;;;;;5.57;4.47;;;17.90;99.90;;;;;;4809874;29;20194;-82
2022/05/19 02:24:57;;;;;;;5.78;4.20;;;17.90;99.90;;;;;;4809616;29;20175;-82
2022/05/19 02:27:45;;;;;;;5.07;4.30;;;17.80;99.90;;;;;;4793816;29;20195;-82
2022/05/19 02:30:14;;;;;;;7.32;4.80;;;17.80;99.90;;;;;;4823771;29;20232;-82
2022/05/19 02:32:40;;;;;;;4.82;4.15;;;17.80;99.90;;;;;;4823593;29;20213;-82
2022/05/19 02:35:07;;;;;;;7.18;4.78;;;17.70;99.90;;;;;;4809720;29;20577;-82
2022/05/19 02:37:33;;;;;;;6.05;4.65;;;17.80;99.90;;;;;;4810011;29;20183;-81
2022/05/19 02:39:59;;;;;;;5.47;4.38;;;17.60;99.90;;;;;;4809325;29;20186;-82
2022/05/19 02:42:25;;;;;;;6.30;4.72;;;17.60;99.90;;;;;;4808446;29;20299;-81
2022/05/19 02:44:51;;;;;;;6.45;4.57;;;17.50;99.90;;;;;;4808291;29;20178;-82
2022/05/19 02:47:17;;;;;;;7.00;4.45;;;17.50;99.90;;;;;;4809553;29;20563;-81
2022/05/19 02:49:42;;;;;;;6.13;4.53;;;17.50;99.90;;;;;;4809622;29;20711;-82
2022/05/19 02:52:08;;;;;;;5.10;4.25;;;17.50;99.90;;;;;;4809494;29;20234;-82
2022/05/19 02:54:34;;;;;;;6.50;4.30;;;17.50;99.90;;;;;;4808847;29;20201;-81
2022/05/19 02:57:00;;;;;;;10.55;4.75;;;17.50;99.90;;;;;;4809665;29;20170;-82
2022/05/19 02:59:26;;;;;;;5.85;4.80;;;17.50;99.90;;;;;;4794094;29;20628;-81
2022/05/19 03:01:52;;;;;;;7.57;4.78;;;17.30;99.90;;;;;;4791172;29;20234;-82
2022/05/19 03:04:18;;;;;;;6.30;4.22;;;17.30;99.90;;;;;;4805001;29;20212;-81
2022/05/19 03:06:43;;;;;;;6.47;4.10;;;17.30;99.90;;;;;;4791256;29;20168;-81
2022/05/19 03:09:09;;;;;;;5.18;4.60;;;17.30;99.90;;;;;;4793972;29;20257;-82
2022/05/19 03:11:35;;;;;;;8.95;4.63;;;17.30;99.90;;;;;;4809253;29;20194;-82
2022/05/19 03:14:01;;;;;;;8.32;4.50;;;17.30;99.90;;;;;;4808907;29;20206;-82
2022/05/19 03:16:27;;;;;;;6.22;4.70;;;17.20;99.90;;;;;;4809281;29;20175;-82
2022/05/19 03:18:53;;;;;;;5.60;4.45;;;17.30;99.90;;;;;;4809137;29;20182;-82
2022/05/19 03:21:19;;;;;;;5.78;4.20;;;17.20;99.90;;;;;;4808383;29;20183;-82
2022/05/19 03:23:45;;;;;;;4.68;4.28;;;17.30;99.90;;;;;;4808801;29;20210;-81
2022/05/19 03:26:11;;;;;;;5.32;4.40;;;17.30;99.90;;;;;;4808658;29;20190;-82
2022/05/19 03:28:37;;;;;;;6.03;4.50;;;17.20;99.90;;;;;;4808903;29;20635;-82
2022/05/19 03:31:02;;;;;;;5.40;4.90;;;17.20;99.90;;;;;;4808923;29;20183;-82
2022/05/19 03:33:28;;;;;;;6.47;4.57;;;17.20;99.90;;;;;;4808807;29;20186;-82
2022/05/19 03:36:02;;;;;;;5.53;4.38;;;17.20;99.90;;;;;;4808760;29;20175;-82
2022/05/19 03:38:28;;;;;;;5.45;4.30;;;17.20;99.90;;;;;;4808576;29;20512;-82
2022/05/19 03:40:54;;;;;;;6.38;4.60;;;17.20;99.90;;;;;;4808391;29;20635;-82
2022/05/19 03:43:20;;;;;;;7.68;4.50;;;17.30;99.90;;;;;;4808473;29;20229;-82
2022/05/19 03:45:46;;;;;;;6.68;4.70;;;17.20;99.90;;;;;;4808553;29;20179;-82
2022/05/19 03:48:12;;;;;;;5.20;4.50;;;17.20;99.90;;;;;;4808211;29;20186;-82
2022/05/19 03:50:42;;;;;;;6.25;4.60;;;17.10;99.90;;;;;;4795831;29;20240;-81
2022/05/19 03:53:08;;;;;;;5.93;4.70;;;17.10;99.90;;;;;;4790352;29;20187;-82
2022/05/19 03:55:33;;;;;;;4.72;4.28;;;17.10;99.90;;;;;;4803771;29;20244;-82
2022/05/19 03:58:00;;;;;;;7.63;4.63;;;17.10;99.90;;;;;;4804175;29;20274;-82
2022/05/19 04:00:25;;;;;;;9.35;4.88;;;17.20;99.90;;;;;;4790143;29;20315;-82
2022/05/19 04:02:51;;;;;;;6.50;5.05;;;17.20;99.90;;;;;;4790172;29;20238;-82
2022/05/19 04:05:17;;;;;;;7.00;5.15;;;17.20;99.90;;;;;;4790078;30;20586;-82
2022/05/19 04:07:42;;;;;;;4.80;4.00;;;17.20;99.90;;;;;;4803954;29;20179;-82
2022/05/19 04:10:11;;;;;;;7.57;4.47;;;17.20;99.90;;;;;;4800231;29;20540;-82
2022/05/19 04:12:37;;;;;;;5.22;4.68;;;17.30;99.90;;;;;;4808117;29;20171;-82
2022/05/19 04:15:05;;;;;;;6.88;4.90;;;17.30;99.90;;;;;;4806756;29;20191;-82
2022/05/19 04:17:34;;;;;;;6.93;4.88;;;17.30;99.90;;;;;;4808401;29;20515;-82
2022/05/19 04:20:01;;;;;;;6.45;4.50;;;17.30;99.90;;;;;;4807993;29;20561;-82
2022/05/19 04:22:27;;;;;;;7.45;4.45;;;17.40;99.90;;;;;;4807916;29;20262;-82
2022/05/19 04:24:53;;;;;;;4.43;4.00;;;17.40;99.90;;;;;;4821391;29;20187;-82
2022/05/19 04:27:19;;;;;;;8.05;4.82;;;17.40;99.90;;;;;;4806704;29;20186;-82
2022/05/19 04:29:48;;;;;;;6.20;4.50;;;17.40;99.90;;;;;;4807894;29;20187;-82
2022/05/19 04:32:16;;;;;;;4.95;4.20;;;17.50;99.90;;;;;;4820905;29;20187;-82
2022/05/19 04:34:42;;;;;;;9.27;4.68;;;17.50;99.90;;;;;;4806340;29;20186;-82
2022/05/19 04:37:08;;;;;;;6.43;4.10;;;17.60;99.90;;;;;;4807854;29;20198;-82
2022/05/19 04:39:34;;;;;;;5.90;4.32;;;17.60;99.90;;;;;;4796736;29;20268;-82
2022/05/19 04:42:03;;;;;;;5.53;4.30;;;17.70;99.90;;;;;;4807657;29;20189;-82
2022/05/19 04:44:29;;;;;;;7.75;4.50;;;17.80;99.90;;;;;;4807745;29;20182;-82
2022/05/19 04:46:55;;;;;;;5.65;4.43;;;17.80;99.90;;;;;;4795669;29;20190;-82
2022/05/19 04:49:20;;;;;;;11.13;4.13;;;17.80;99.90;;;;;;4789234;29;20696;-82
2022/05/19 04:51:46;;;;;;;4.80;4.28;;;17.90;99.90;;;;;;4789254;29;20186;-82
2022/05/19 04:54:12;;;;;;;5.32;4.53;;;18.00;99.90;;;;;;4789230;29;20210;-81
2022/05/19 04:56:42;;;;;;;6.50;4.88;;;18.00;99.90;;;;;;4789327;29;20176;-82
2022/05/19 04:59:14;;;;;;;5.82;4.47;;;18.00;99.90;;;;;;4789589;29;20172;-82
2022/05/19 05:01:45;;;;;;;5.63;4.40;;;18.10;99.90;;;;;;4787510;29;20667;-82
2022/05/19 05:04:11;;;;;;;4.90;4.28;;;18.10;99.90;;;;;;4788898;30;20655;-82
2022/05/19 05:06:37;;;;;;;5.70;4.10;;;18.20;99.90;;;;;;4788976;30;20231;-82
2022/05/19 05:09:04;;;;;;;5.38;3.95;;;18.20;99.90;;;;;;4791583;29;20604;-82
2022/05/19 05:11:30;;;;;;;6.13;4.63;;;18.30;99.90;;;;;;4806756;29;20189;-82
2022/05/19 05:13:56;;;;;;;5.22;4.22;;;18.40;99.90;;;;;;4803703;29;20632;-82
2022/05/19 05:16:21;;;;;;;4.75;4.28;;;18.40;99.90;;;;;;4788281;29;20183;-82
2022/05/19 05:18:47;;;;;;;4.88;3.88;;;18.40;99.90;;;;;;4784962;29;20188;-82
2022/05/19 05:21:13;;;;;;;7.50;3.97;;;18.50;99.90;;;;;;4769058;29;20243;-82
2022/05/19 05:23:42;;;;;;;6.43;3.97;;;18.50;99.90;;;;;;4783303;30;20215;-82
2022/05/19 05:26:08;;;;;;;6.55;3.60;;;18.60;99.90;;;;;;4788780;29;20171;-82
2022/05/19 05:28:35;;;;;;;4.38;3.50;;;18.70;99.90;;;;;;4788603;29;20627;-82
2022/05/19 05:31:01;;;;;;;7.68;4.50;;;18.80;99.90;;;;;;4787443;29;20207;-82
2022/05/19 05:33:27;;;;;;;4.45;3.97;;;18.80;99.90;;;;;;4787055;29;20560;-82
2022/05/19 05:35:53;;;;;;;6.40;3.83;;;18.90;99.90;;;;;;4788627;30;20175;-81
2022/05/19 05:38:19;;;;;;;4.80;3.83;;;18.90;99.90;;;;;;4788939;29;20172;-81
2022/05/19 05:40:46;;;;;;;5.03;4.13;;;19.00;99.90;;;;;;4803667;29;20187;-81
2022/05/19 05:43:16;;;;;;;4.70;3.53;;;19.00;99.90;;;;;;4799595;29;20219;-81
2022/05/19 05:45:43;;;;;;;5.72;3.67;;;19.10;99.90;;;;;;4791650;29;20602;-82
2022/05/19 05:48:10;;;;;;;4.78;3.38;;;19.10;99.90;;;;;;4790148;29;20215;-82
2022/05/19 05:50:36;;;;;;;4.55;3.80;;;19.20;99.90;;;;;;4790673;29;20237;-81
2022/05/19 05:53:02;;;;;;;6.05;3.60;;;19.30;99.90;;;;;;4792382;29;20236;-82
2022/05/19 05:55:29;;;;;;;3.53;3.10;;;19.40;99.90;;;;;;4790423;29;20615;-82
2022/05/19 05:57:55;;;;;;;4.03;3.03;;;19.40;99.90;;;;;;4789727;30;20195;-81
2022/05/19 06:00:21;;;;;;;3.63;3.08;;;19.50;99.90;;;;;;4791972;29;20738;-82
2022/05/19 06:02:48;;;;;;;4.85;2.70;;;19.60;99.90;;;;;;4792091;30;20203;-82
2022/05/19 06:05:14;;;;;;;3.30;2.92;;;19.70;99.90;;;;;;4792279;29;20238;-81
2022/05/19 06:07:40;;;;;;;4.20;2.90;;;19.90;99.90;;;;;;4792040;29;20175;-81
2022/05/19 06:10:07;;;;;;;4.25;2.72;;;20.00;99.90;;;;;;4809557;29;20541;-81
2022/05/19 06:12:33;;;;;;;7.18;3.25;;;20.10;99.90;;;;;;4791681;29;20203;-82
2022/05/19 06:14:58;;;;;;;4.65;2.72;;;20.30;99.90;;;;;;4790396;29;20183;-81
2022/05/19 06:17:24;;;;;;;4.88;2.60;;;20.40;99.90;;;;;;4790685;30;20183;-81
2022/05/19 06:19:51;;;;;;;3.05;2.47;;;20.40;99.90;;;;;;4791613;29;20211;-81
2022/05/19 06:22:17;;;;;;;5.47;2.58;;;20.50;99.90;;;;;;4791409;29;20230;-82
2022/05/19 06:24:44;;;;;;;3.47;2.78;;;20.50;99.90;;;;;;4820655;29;20198;-81
2022/05/19 06:27:09;;;;;;;3.45;2.22;;;20.60;99.90;;;;;;4795690;29;20233;-82
2022/05/19 06:29:35;;;;;;;2.30;2.10;;;20.60;99.90;;;;;;4790879;29;20223;-82
2022/05/19 06:32:01;;;;;;;4.65;2.50;;;20.60;99.90;;;;;;4787705;29;20180;-82
2022/05/19 06:34:27;;;;;;;3.80;2.40;;;20.70;99.90;;;;;;4801048;29;20260;-81
2022/05/19 06:36:53;;;;;;;3.05;2.13;;;20.70;99.90;;;;;;4804443;29;20616;-81
2022/05/19 06:39:19;;;;;;;2.67;2.10;;;20.80;99.90;;;;;;4806603;29;20210;-81
2022/05/19 06:42:00;;;;;;;4.55;2.15;;;20.90;99.90;;;;;;4808414;29;20218;-81
2022/05/19 06:44:31;;;;;;;5.07;2.28;;;20.90;99.90;;;;;;4808529;29;20178;-81
2022/05/19 06:46:57;;;;;;;3.97;2.35;;;21.00;99.90;;;;;;4809167;29;20178;-81
2022/05/19 06:49:23;;;;;;;3.03;2.13;;;21.00;99.90;;;;;;4808058;29;20190;-82
2022/05/19 06:51:49;;;;;;;2.80;2.30;;;21.10;99.90;;;;;;4793504;29;20187;-81
2022/05/19 06:54:15;;;;;;;4.03;2.58;;;21.10;99.90;;;;;;4790637;29;20400;-81
2022/05/19 06:56:41;;;;;;;4.80;2.42;;;21.20;99.90;;;;;;4788147;29;20187;-81
2022/05/19 06:59:07;;;;;;;5.03;2.70;;;21.30;99.90;;;;;;4804196;29;20198;-80
2022/05/19 07:01:33;;;;;;;6.70;2.70;;;21.40;99.90;;;;;;4788977;29;20235;-80
2022/05/19 07:04:00;;;;;;;4.88;2.17;;;21.50;99.90;;;;;;4790827;29;20222;-81
2022/05/19 07:06:26;;;;;;;2.75;2.20;;;21.60;99.90;;;;;;4789243;29;20276;-80
2022/05/19 07:08:51;;;;;;;4.50;2.50;;;21.70;99.90;;;;;;4804842;29;20191;-80
2022/05/19 07:11:26;;;;;;;4.05;2.67;;;21.90;99.90;;;;;;4773273;29;20184;-80
2022/05/19 07:14:01;;;;;;;2.70;2.17;;;21.90;99.90;;;;;;4779422;29;20183;-81
2022/05/19 07:16:28;;;;;;;3.22;2.35;;;22.10;99.90;;;;;;4804364;29;20187;-80
2022/05/19 07:20:43;;;;;;;3.58;2.60;;;22.30;99.90;;;;;;4790557;29;20191;-81
2022/05/19 07:21:44;;;;;;;3.80;2.47;;;22.30;99.90;;;;;;4779646;29;20654;-81
2022/05/19 07:24:14;;;;;;;3.65;2.40;;;22.40;99.90;;;;;;4787512;30;20299;-80
2022/05/19 07:26:41;;;;;;;5.50;2.20;;;22.50;99.90;;;;;;4810796;29;20221;-81
2022/05/19 07:29:07;;;;;;;4.05;2.53;;;22.60;99.90;;;;;;4807435;29;20232;-81
2022/05/19 07:31:33;;;;;;;3.53;2.35;;;22.70;99.90;;;;;;4807795;29;20187;-81
2022/05/19 07:33:59;;;;;;;3.30;2.33;;;22.80;99.90;;;;;;4808303;29;20210;-82
2022/05/19 07:36:24;;;;;;;2.88;2.33;;;22.90;99.90;;;;;;4808220;29;20213;-80
2022/05/19 07:38:50;;;;;;;3.83;2.70;;;23.00;99.90;;;;;;4789729;29;20271;-81
2022/05/19 07:41:16;;;;;;;11.52;2.80;;;23.20;99.90;;;;;;4796844;29;20245;-80
2022/05/19 07:43:42;;;;;;;5.07;2.60;;;23.40;99.90;;;;;;4786978;29;20219;-80
2022/05/19 07:46:11;;;;;;;3.10;2.80;;;23.50;99.90;;;;;;4789592;29;20524;-80
2022/05/19 07:48:38;;;;;;;5.50;3.05;;;23.70;99.90;;;;;;4789856;29;20175;-80
2022/05/19 07:51:04;;;;;;;5.03;2.78;;;23.90;99.90;;;;;;4815389;29;20485;-80
2022/05/19 07:53:30;;;;;;;8.05;3.00;;;24.00;99.50;;;;;;4790294;29;20232;-82
2022/05/19 07:55:57;;;;;;;2.95;2.40;;;24.20;99.70;;;;;;4778761;29;20527;-81
2022/05/19 07:58:22;;;;;;;5.13;2.38;;;24.20;99.10;;;;;;4772229;29;20184;-80
2022/05/19 08:00:51;;;;;;;8.30;2.38;;;24.20;99.20;;;;;;4781403;29;20239;-80
2022/05/19 08:03:17;;;;;;;3.97;2.13;;;24.20;99.20;;;;;;4789248;29;20352;-81
2022/05/19 08:05:42;;;;;;;2.97;2.17;;;24.20;98.60;;;;;;4789422;29;20187;-81
2022/05/19 08:08:08;;;;;;;6.47;2.00;;;24.10;99.30;;;;;;4786479;29;20720;-81
2022/05/19 08:10:34;;;;;;;2.53;2.00;;;24.00;98.20;;;;;;4802750;29;20195;-80
2022/05/19 08:15:47;;;;;;;4.57;1.92;;;23.90;98.60;;;;;;4807653;29;20170;-80
2022/05/19 08:18:13;;;;;;;6.05;1.63;;;23.80;97.50;;;;;;4821942;29;20178;-80
2022/05/19 08:20:43;;;;;;;2.53;1.67;;;23.80;97.20;;;;;;4807869;29;20682;-80
2022/05/19 08:23:13;;;;;;;3.28;2.00;;;23.90;97.40;;;;;;4807661;29;20222;-80
2022/05/19 08:25:39;;;;;;;7.13;2.40;;;24.10;97.50;;;;;;4807182;29;20173;-81
2022/05/19 08:28:06;;;;;;;8.00;2.05;;;24.30;97.50;;;;;;4808069;29;20502;-80
2022/05/19 08:30:32;;;;;;;3.58;2.20;;;24.50;97.00;;;;;;4798525;29;20200;-80
2022/05/19 08:32:58;;;;;;;3.05;1.90;;;24.70;96.70;;;;;;4789421;29;20642;-80
2022/05/19 08:35:25;;;;;;;5.00;2.13;;;24.70;96.00;;;;;;4788042;29;20199;-79
2022/05/19 08:37:51;;;;;;;5.40;2.25;;;24.70;96.30;;;;;;4789123;30;20675;-81
2022/05/19 08:40:18;;;;;;;3.25;2.05;;;24.70;96.50;;;;;;4786720;29;20200;-81
2022/05/19 08:42:49;;;;;;;3.42;2.20;;;24.70;96.80;;;;;;4771320;29;20672;-80
2022/05/19 08:45:23;;;;;;;4.63;2.75;;;24.70;97.20;;;;;;4771288;30;20255;-82
2022/05/19 08:47:54;;;;;;;6.95;2.08;;;24.80;97.80;;;;;;4775524;29;20244;-81
2022/05/19 08:50:29;;;;;;;3.15;2.10;;;25.00;97.10;;;;;;4789399;30;20171;-80
2022/05/19 08:52:54;;;;;;;4.20;2.25;;;25.30;97.80;;;;;;4775356;30;20632;-81
2022/05/19 08:55:20;;;;;;;4.18;2.10;;;25.50;96.90;;;;;;4771000;30;20216;-81
2022/05/19 08:58:33;;;;;;;3.95;1.90;;;25.50;96.20;;;;;;4785251;29;20572;-80
2022/05/19 09:01:22;;;;;;;2.45;1.90;;;25.50;96.50;;;;;;4804834;29;20246;-80
2022/05/19 09:04:24;;;;;;;2.78;2.10;;;25.50;95.10;;;;;;4805153;29;20224;-81
2022/05/19 09:10:32;;;;;;;2.45;1.67;;;25.70;95.10;;;;;;4788939;29;20407;-80
2022/05/19 09:13:06;;;;;;;3.53;2.10;;;25.70;94.90;;;;;;4793136;29;20240;-80
2022/05/19 09:15:34;;;;;;;3.35;1.90;;;25.70;96.60;;;;;;4788703;29;20182;-80
2022/05/19 09:17:59;;;;;;;3.25;2.00;;;25.80;95.60;;;;;;4788569;29;20171;-81
2022/05/19 09:20:35;;;;;;;2.42;2.10;;;25.90;95.00;;;;;;4788978;29;20187;-80
2022/05/19 09:23:04;;;;;;;2.25;1.67;;;25.80;94.50;;;;;;4788953;29;20215;-80
2022/05/19 09:25:32;;;;;;;2.42;1.83;;;25.80;94.80;;;;;;4788323;29;20199;-81
2022/05/19 09:27:59;;;;;;;4.15;2.00;;;25.70;94.30;;;;;;4802583;29;20493;-81
2022/05/19 09:30:37;;;;;;;4.07;1.65;;;25.70;94.90;;;;;;4795552;29;20248;-81
2022/05/19 09:33:16;;;;;;;2.63;1.73;;;25.70;95.30;;;;;;4806867;29;20167;-80
2022/05/19 09:35:47;;;;;;;2.40;1.83;;;25.80;95.80;;;;;;4806671;29;20171;-81
2022/05/19 09:38:30;;;;;;;2.28;1.92;;;26.00;95.10;;;;;;4806942;29;20175;-82
2022/05/19 09:41:26;;;;;;;4.82;1.88;;;26.20;95.30;;;;;;4790174;29;20199;-81
2022/05/19 09:43:54;;;;;;;3.78;1.80;;;26.40;95.10;;;;;;4788952;29;20282;-81
2022/05/19 09:46:20;;;;;;;3.72;1.88;;;26.40;94.20;;;;;;4787168;29;20231;-81
2022/05/19 09:49:01;;;;;;;2.10;1.67;;;26.50;94.50;;;;;;4799905;29;20230;-82
2022/05/19 09:51:41;;;;;;;2.30;1.88;;;26.50;93.50;;;;;;4784867;29;20179;-81
2022/05/19 09:54:12;;;;;;;2.90;1.80;;;26.60;94.50;;;;;;4787731;30;20199;-79
2022/05/19 09:56:47;;;;;;;6.00;1.90;;;26.70;93.90;;;;;;4788021;29;20187;-81
2022/05/19 09:59:20;;;;;;;2.85;1.70;;;26.80;93.30;;;;;;4788773;29;20634;-81
2022/05/19 10:01:47;;;;;;;2.63;1.70;;;26.90;93.00;;;;;;4787813;29;20726;-82
2022/05/19 10:04:39;;;;;;;1.80;1.60;;;27.00;93.20;;;;;;4788420;30;20215;-82
2022/05/19 10:07:22;;;;;;;5.22;2.00;;;27.30;91.70;;;;;;4784435;29;20192;-82
2022/05/19 10:09:48;;;;;;;2.67;1.88;;;27.50;92.70;;;;;;4785184;29;20195;-81
2022/05/19 10:12:30;;;;;;;8.98;2.17;;;27.60;91.90;;;;;;4806398;29;20221;-82
2022/05/19 10:15:10;;;;;;;4.75;1.80;;;27.70;91.90;;;;;;4800486;29;20198;-80
2022/05/19 10:17:47;;;;;;;5.80;1.50;;;27.80;90.90;;;;;;4788518;29;20191;-80
2022/05/19 10:20:13;;;;;;;3.55;1.83;;;27.80;90.70;;;;;;4787856;29;20262;-82
2022/05/19 10:22:50;;;;;;;2.13;1.70;;;27.80;91.10;;;;;;4788231;29;20538;-82
2022/05/19 10:25:40;;;;;;;2.72;1.75;;;27.80;91.90;;;;;;4802326;29;20631;-82
2022/05/19 10:31:53;;;;;;;2.47;1.70;;;27.90;90.80;;;;;;4788652;29;20206;-82
2022/05/19 10:34:43;;;;;;;2.95;1.70;;;28.10;90.50;;;;;;4780281;30;20201;-81
2022/05/19 10:37:40;;;;;;;4.82;2.00;;;28.30;90.00;;;;;;4791451;29;20195;-80
2022/05/19 10:40:46;;;;;;;4.25;1.70;;;28.50;90.40;;;;;;4802139;29;20193;-82
2022/05/19 10:43:54;;;;;;;2.58;1.40;;;28.80;90.30;;;;;;4808778;29;20211;-81
2022/05/19 10:46:22;;;;;;;5.85;1.70;;;28.60;88.00;;;;;;4773570;30;20196;-82
2022/05/19 10:48:51;;;;;;;3.20;1.67;;;28.60;90.00;;;;;;4773480;30;20616;-81
2022/05/19 10:51:51;;;;;;;3.95;1.50;;;28.40;88.20;;;;;;4773504;30;20226;-81
2022/05/19 10:54:57;;;;;;;3.03;1.50;;;28.50;90.60;;;;;;4790211;29;20203;-82
2022/05/19 10:57:40;;;;;;;2.83;1.60;;;28.70;87.10;;;;;;4773287;30;20180;-82
2022/05/19 11:00:21;;;;;;;3.58;1.60;;;28.90;86.10;;;;;;4783551;29;20230;-82
2022/05/19 11:03:06;;;;;;;1.70;1.50;;;29.00;87.00;;;;;;4809278;29;20190;-81
2022/05/19 11:05:47;;;;;;;1.83;1.65;;;29.10;85.70;;;;;;4809362;29;20183;-81
2022/05/19 11:08:28;;;;;;;2.53;1.50;;;29.20;86.90;;;;;;4809008;29;20255;-82
2022/05/19 11:11:06;;;;;;;2.92;1.50;;;29.30;86.40;;;;;;4792504;29;20194;-81
2022/05/19 11:13:58;;;;;;;1.48;1.38;;;29.30;84.40;;;;;;4791243;29;20191;-82
2022/05/19 11:16:55;;;;;;;5.47;1.33;;;29.30;87.10;;;;;;4788822;29;20203;-81
2022/05/19 11:19:41;;;;;;;2.42;1.58;;;29.40;84.20;;;;;;4790511;29;20330;-81
2022/05/19 11:22:13;;;;;;;2.88;1.73;;;29.50;84.40;;;;;;4795123;29;20187;-82
2022/05/19 11:27:44;;;;;;;2.92;1.60;;;29.30;82.70;;;;;;4790544;30;20595;-81
2022/05/19 11:30:16;;;;;;;1.75;1.40;;;29.30;84.70;;;;;;4790712;29;20177;-82
2022/05/19 11:32:42;;;;;;;2.88;1.50;;;29.40;83.20;;;;;;4790866;30;20168;-81
2022/05/19 11:35:21;;;;;;;1.65;1.25;;;29.50;84.20;;;;;;4788334;30;20674;-82
2022/05/19 11:38:19;;;;;;;3.80;1.90;;;29.80;82.30;;;;;;4790754;29;20266;-81
2022/05/19 11:40:48;;;;;;;2.45;1.40;;;30.00;82.00;;;;;;4805506;29;20186;-81
2022/05/19 11:43:23;;;;;;;4.90;1.77;;;30.00;83.30;;;;;;4808424;29;20570;-82
2022/05/19 11:45:52;;;;;;;2.00;1.80;;;30.00;82.80;;;;;;4808233;29;20182;-82
2022/05/19 11:55:14;;;;;;;2.55;1.75;;;30.10;81.90;;;;;;4790289;30;20198;-81
2022/05/19 11:57:59;;;;;;;2.97;1.70;;;30.20;80.00;;;;;;4789495;30;20167;-82
2022/05/19 12:00:32;;;;;;;3.63;1.85;;;30.10;81.00;;;;;;4796925;29;20538;-80
2022/05/19 12:03:02;;;;;;;3.60;1.70;;;30.10;80.60;;;;;;4795063;29;20275;-81
2022/05/19 12:05:43;;;;;;;2.05;1.48;;;30.30;80.50;;;;;;4790081;29;20500;-81
2022/05/19 12:08:23;;;;;;;1.80;1.52;;;30.30;81.00;;;;;;4773180;29;20595;-82
2022/05/19 12:10:57;;;;;;;1.75;1.40;;;30.40;83.30;;;;;;4803236;29;20205;-81
2022/05/19 12:13:34;;;;;;;1.50;1.40;;;30.40;82.00;;;;;;4808000;29;20610;-81
2022/05/19 12:16:09;;;;;;;3.67;1.77;;;30.40;80.80;;;;;;4807801;29;20173;-84
2022/05/19 12:18:41;;;;;;;3.15;1.52;;;30.30;79.60;;;;;;4808107;29;20514;-81
2022/05/19 12:21:06;;;;;;;2.90;1.77;;;30.00;80.10;;;;;;4800692;29;20191;-81
2022/05/19 12:23:40;;;;;;;2.80;1.73;;;29.90;82.20;;;;;;4789537;29;20217;-82
2022/05/19 12:26:24;;;;;;;1.83;1.45;;;30.10;81.60;;;;;;4792821;29;20218;-82
2022/05/19 12:29:23;;;;;;;2.25;1.70;;;30.30;81.30;;;;;;4807849;29;20226;-83
2022/05/19 12:32:06;;;;;;;1.58;1.30;;;30.70;79.40;;;;;;4807708;29;20209;-81
2022/05/19 12:34:40;;;;;;;3.50;1.70;;;30.80;77.50;;;;;;4807839;29;20174;-81
2022/05/19 12:37:12;;;;;;;2.15;1.60;;;30.90;79.80;;;;;;4795050;29;20537;-81
2022/05/19 12:39:49;;;;;;;2.28;1.70;;;31.00;76.60;;;;;;4785845;29;20277;-81
2022/05/19 12:42:32;;;;;;;4.40;1.58;;;31.10;77.70;;;;;;4806352;29;20205;-81
2022/05/19 12:44:59;;;;;;;2.80;1.70;;;31.20;76.30;;;;;;4807646;29;20178;-80
2022/05/19 12:47:30;;;;;;;2.13;1.50;;;31.30;76.10;;;;;;4807752;29;20182;-81
2022/05/19 12:50:06;;;;;;;3.35;1.60;;;31.20;73.30;;;;;;4807282;29;20186;-81
2022/05/19 12:53:05;;;;;;;2.20;1.42;;;31.10;76.30;;;;;;4806538;29;20182;-82
2022/05/19 12:55:37;;;;;;;2.05;1.40;;;30.90;75.80;;;;;;4796555;29;20286;-82
2022/05/19 12:58:38;;;;;;;2.20;1.60;;;30.90;77.20;;;;;;4802859;29;20188;-82
2022/05/19 13:01:29;;;;;;;2.90;1.63;;;30.90;76.10;;;;;;4792215;29;20238;-82
2022/05/19 13:04:10;;;;;;;2.50;1.60;;;31.00;76.90;;;;;;4789076;29;20263;-82
2022/05/19 13:06:42;;;;;;;1.98;1.50;;;31.00;74.30;;;;;;4803012;29;20178;-83
2022/05/19 13:09:09;;;;;;;3.15;1.70;;;31.00;74.60;;;;;;4792048;29;20694;-82
2022/05/19 13:11:46;;;;;;;3.63;1.30;;;31.10;76.80;;;;;;4787200;29;20222;-81
2022/05/19 13:14:16;;;;;;;2.30;1.42;;;31.20;76.00;;;;;;4789179;29;20496;-82
2022/05/19 13:16:45;;;;;;;4.53;1.67;;;31.30;74.80;;;;;;4788832;29;20220;-82
2022/05/19 13:19:18;;;;;;;3.78;1.35;;;31.30;76.00;;;;;;4789235;30;20178;-83
2022/05/19 13:22:08;;;;;;;3.08;1.55;;;31.40;73.30;;;;;;4789117;29;20178;-83
2022/05/19 13:24:37;;;;;;;1.48;1.33;;;31.50;76.00;;;;;;4770970;30;20218;-83
2022/05/19 13:32:37;;;;;;;2.95;1.48;;;30.60;74.30;;;;;;4776063;30;20244;-83
2022/05/19 13:35:29;;;;;;;2.95;1.48;;;30.60;74.20;;;;;;4799861;29;20207;-82